sensor_id;sensor_type;location;lat;lon;timestamp;pressure;altitude;pressure_sealevel;temperature;humidity
41078;BME280;26823;42.662;23.352;2022-11-27T00:01:14;95691.19;;;1.92;86.25
41078;BME280;26823;42.662;23.352;2022-11-27T00:03:41;95699.38;;;1.90;86.70
41078;BME280;26823;42.662;23.352;2022-11-27T00:06:07;95704.69;;;1.84;86.26
41078;BME280;26823;42.662;23.352;2022-11-27T00:08:35;95696.50;;;1.85;86.52
41078;BME280;26823;42.662;23.352;2022-11-27T00:11:21;95708.41;;;1.89;86.52
41078;BME280;26823;42.662;23.352;2022-11-27T00:13:47;95703.06;;;1.89;86.29
41078;BME280;26823;42.662;23.352;2022-11-27T00:16:13;95711.94;;;1.97;86.31
41078;BME280;26823;42.662;23.352;2022-11-27T00:18:39;95702.25;;;1.89;86.88
41078;BME280;26823;42.662;23.352;2022-11-27T00:21:11;95703.28;;;1.88;86.63
41078;BME280;26823;42.662;23.352;2022-11-27T00:23:37;95702.03;;;1.84;86.86
41078;BME280;26823;42.662;23.352;2022-11-27T00:26:03;95710.66;;;1.86;86.84
41078;BME280;26823;42.662;23.352;2022-11-27T00:28:30;95709.84;;;1.92;86.73
41078;BME280;26823;42.662;23.352;2022-11-27T00:31:05;95710.88;;;1.91;86.71
41078;BME280;26823;42.662;23.352;2022-11-27T00:33:30;95705.75;;;1.83;87.05
41078;BME280;26823;42.662;23.352;2022-11-27T00:35:56;95713.53;;;1.84;87.09
41078;BME280;26823;42.662;23.352;2022-11-27T00:38:25;95709.84;;;1.85;87.27
41078;BME280;26823;42.662;23.352;2022-11-27T00:40:50;95672.84;;;1.62;87.09
41078;BME280;26823;42.662;23.352;2022-11-27T00:43:16;95704.59;;;1.43;88.24
41078;BME280;26823;42.662;23.352;2022-11-27T00:45:41;95713.75;;;1.34;89.35
41078;BME280;26823;42.662;23.352;2022-11-27T00:48:06;95720.22;;;1.60;88.85
41078;BME280;26823;42.662;23.352;2022-11-27T00:50:38;95678.16;;;1.49;88.41
41078;BME280;26823;42.662;23.352;2022-11-27T00:53:04;95718.44;;;1.74;88.23
41078;BME280;26823;42.662;23.352;2022-11-27T00:55:29;95711.59;;;1.58;87.67
41078;BME280;26823;42.662;23.352;2022-11-27T00:57:54;95673.16;;;1.32;88.66
41078;BME280;26823;42.662;23.352;2022-11-27T01:00:21;95720.09;;;1.75;87.85
41078;BME280;26823;42.662;23.352;2022-11-27T01:02:46;95712.69;;;1.77;87.42
41078;BME280;26823;42.662;23.352;2022-11-27T01:05:12;95715.56;;;1.82;87.86
41078;BME280;26823;42.662;23.352;2022-11-27T01:07:37;95713.53;;;1.84;87.19
41078;BME280;26823;42.662;23.352;2022-11-27T01:10:03;95706.34;;;1.78;86.63
41078;BME280;26823;42.662;23.352;2022-11-27T01:12:28;95709.00;;;1.85;87.00
41078;BME280;26823;42.662;23.352;2022-11-27T01:14:54;95717.66;;;1.93;86.17
41078;BME280;26823;42.662;23.352;2022-11-27T01:17:19;95707.59;;;1.95;86.08
41078;BME280;26823;42.662;23.352;2022-11-27T01:19:45;95696.09;;;1.82;85.91
41078;BME280;26823;42.662;23.352;2022-11-27T01:22:10;95678.00;;;1.70;85.90
41078;BME280;26823;42.662;23.352;2022-11-27T01:24:35;95698.97;;;1.80;85.70
41078;BME280;26823;42.662;23.352;2022-11-27T01:27:01;95700.59;;;1.81;85.56
41078;BME280;26823;42.662;23.352;2022-11-27T01:29:26;95690.69;;;1.68;85.32
41078;BME280;26823;42.662;23.352;2022-11-27T01:31:51;95693.72;;;1.52;86.11
41078;BME280;26823;42.662;23.352;2022-11-27T01:34:17;95698.19;;;1.38;87.42
41078;BME280;26823;42.662;23.352;2022-11-27T01:36:43;95702.09;;;1.35;88.74
41078;BME280;26823;42.662;23.352;2022-11-27T01:39:14;95697.38;;;1.37;88.41
41078;BME280;26823;42.662;23.352;2022-11-27T01:41:40;95699.63;;;1.34;88.22
41078;BME280;26823;42.662;23.352;2022-11-27T01:46:52;95682.16;;;1.24;90.10
41078;BME280;26823;42.662;23.352;2022-11-27T01:49:37;95674.97;;;1.18;90.27
41078;BME280;26823;42.662;23.352;2022-11-27T01:52:17;95677.44;;;0.85;91.66
41078;BME280;26823;42.662;23.352;2022-11-27T01:54:54;95670.41;;;1.12;91.23
41078;BME280;26823;42.662;23.352;2022-11-27T01:57:24;95675.50;;;1.00;91.34
41078;BME280;26823;42.662;23.352;2022-11-27T01:59:52;95682.28;;;1.09;91.48
41078;BME280;26823;42.662;23.352;2022-11-27T02:02:18;95682.22;;;0.96;90.57
41078;BME280;26823;42.662;23.352;2022-11-27T02:04:44;95669.69;;;0.90;91.48
41078;BME280;26823;42.662;23.352;2022-11-27T02:07:09;95687.28;;;1.26;91.08
41078;BME280;26823;42.662;23.352;2022-11-27T02:09:35;95677.28;;;0.93;90.61
41078;BME280;26823;42.662;23.352;2022-11-27T02:17:20;95687.38;;;1.53;89.39
41078;BME280;26823;42.662;23.352;2022-11-27T02:19:54;95688.72;;;1.22;89.94
41078;BME280;26823;42.662;23.352;2022-11-27T02:25:25;95684.06;;;1.44;89.42
41078;BME280;26823;42.662;23.352;2022-11-27T02:30:40;95681.31;;;1.24;89.30
41078;BME280;26823;42.662;23.352;2022-11-27T02:33:10;95683.63;;;0.92;91.06
41078;BME280;26823;42.662;23.352;2022-11-27T02:38:06;95700.59;;;0.84;91.81
41078;BME280;26823;42.662;23.352;2022-11-27T02:40:42;95681.28;;;0.75;92.28
41078;BME280;26823;42.662;23.352;2022-11-27T02:43:13;95704.84;;;0.78;92.07
41078;BME280;26823;42.662;23.352;2022-11-27T02:45:43;95699.75;;;0.84;91.76
41078;BME280;26823;42.662;23.352;2022-11-27T02:48:11;95694.50;;;0.90;92.01
41078;BME280;26823;42.662;23.352;2022-11-27T02:50:39;95693.59;;;1.18;91.20
41078;BME280;26823;42.662;23.352;2022-11-27T02:53:11;95698.81;;;1.40;89.62
41078;BME280;26823;42.662;23.352;2022-11-27T02:55:38;95703.16;;;1.54;89.31
41078;BME280;26823;42.662;23.352;2022-11-27T02:58:09;95696.66;;;1.70;88.41
41078;BME280;26823;42.662;23.352;2022-11-27T03:00:37;95697.09;;;1.81;87.07
41078;BME280;26823;42.662;23.352;2022-11-27T03:03:06;95673.41;;;1.51;87.62
41078;BME280;26823;42.662;23.352;2022-11-27T03:05:36;95696.97;;;1.40;88.40
41078;BME280;26823;42.662;23.352;2022-11-27T03:08:06;95699.22;;;1.37;89.31
41078;BME280;26823;42.662;23.352;2022-11-27T03:10:45;95702.72;;;1.44;89.58
41078;BME280;26823;42.662;23.352;2022-11-27T03:13:12;95706.72;;;1.68;88.58
41078;BME280;26823;42.662;23.352;2022-11-27T03:18:31;95704.09;;;1.95;87.53
41078;BME280;26823;42.662;23.352;2022-11-27T03:21:08;95699.22;;;2.12;87.15
41078;BME280;26823;42.662;23.352;2022-11-27T03:23:36;95680.72;;;2.04;86.40
41078;BME280;26823;42.662;23.352;2022-11-27T03:26:01;95682.78;;;2.08;86.08
41078;BME280;26823;42.662;23.352;2022-11-27T03:28:27;95702.09;;;2.10;86.30
41078;BME280;26823;42.662;23.352;2022-11-27T03:30:53;95703.50;;;2.00;86.92
41078;BME280;26823;42.662;23.352;2022-11-27T03:33:19;95704.56;;;2.12;87.08
41078;BME280;26823;42.662;23.352;2022-11-27T03:35:44;95689.13;;;2.14;86.58
41078;BME280;26823;42.662;23.352;2022-11-27T03:38:10;95692.22;;;2.18;86.04
41078;BME280;26823;42.662;23.352;2022-11-27T03:40:54;95698.78;;;2.02;87.06
41078;BME280;26823;42.662;23.352;2022-11-27T03:43:25;95704.34;;;2.20;86.86
41078;BME280;26823;42.662;23.352;2022-11-27T03:46:08;95699.22;;;2.25;86.54
41078;BME280;26823;42.662;23.352;2022-11-27T03:56:42;95698.59;;;2.30;86.33
41078;BME280;26823;42.662;23.352;2022-11-27T04:01:35;95680.72;;;2.24;85.70
41078;BME280;26823;42.662;23.352;2022-11-27T04:04:01;95693.91;;;2.32;85.84
41078;BME280;26823;42.662;23.352;2022-11-27T04:06:26;95684.44;;;2.30;86.07
41078;BME280;26823;42.662;23.352;2022-11-27T04:08:52;95692.66;;;2.21;87.19
41078;BME280;26823;42.662;23.352;2022-11-27T04:11:17;95686.06;;;2.17;86.94
41078;BME280;26823;42.662;23.352;2022-11-27T04:13:43;95675.59;;;2.02;88.00
41078;BME280;26823;42.662;23.352;2022-11-27T04:16:09;95681.31;;;1.86;88.50
41078;BME280;26823;42.662;23.352;2022-11-27T04:18:34;95671.47;;;1.93;88.42
41078;BME280;26823;42.662;23.352;2022-11-27T04:21:00;95675.56;;;1.82;89.79
41078;BME280;26823;42.662;23.352;2022-11-27T04:23:25;95679.09;;;2.03;89.13
41078;BME280;26823;42.662;23.352;2022-11-27T04:25:51;95683.00;;;2.07;88.40
41078;BME280;26823;42.662;23.352;2022-11-27T04:28:16;95650.13;;;1.93;87.90
41078;BME280;26823;42.662;23.352;2022-11-27T04:30:42;95688.94;;;2.22;87.44
41078;BME280;26823;42.662;23.352;2022-11-27T04:33:08;95691.63;;;2.22;87.10
41078;BME280;26823;42.662;23.352;2022-11-27T04:35:33;95674.38;;;2.18;87.13
41078;BME280;26823;42.662;23.352;2022-11-27T04:37:59;95686.69;;;2.26;86.88
41078;BME280;26823;42.662;23.352;2022-11-27T04:40:24;95692.03;;;2.19;86.38
41078;BME280;26823;42.662;23.352;2022-11-27T04:42:49;95693.66;;;2.14;86.14
41078;BME280;26823;42.662;23.352;2022-11-27T04:45:16;95700.88;;;2.13;86.73
41078;BME280;26823;42.662;23.352;2022-11-27T04:47:41;95702.91;;;2.18;86.61
41078;BME280;26823;42.662;23.352;2022-11-27T04:50:07;95706.59;;;2.03;87.69
41078;BME280;26823;42.662;23.352;2022-11-27T04:52:32;95699.59;;;1.89;88.30
41078;BME280;26823;42.662;23.352;2022-11-27T04:54:58;95700.56;;;1.61;89.50
41078;BME280;26823;42.662;23.352;2022-11-27T04:57:23;95710.66;;;1.86;89.20
41078;BME280;26823;42.662;23.352;2022-11-27T04:59:48;95718.88;;;1.98;88.24
41078;BME280;26823;42.662;23.352;2022-11-27T05:02:14;95717.91;;;2.05;87.69
41078;BME280;26823;42.662;23.352;2022-11-27T05:04:39;95698.00;;;2.08;87.39
41078;BME280;26823;42.662;23.352;2022-11-27T05:07:11;95696.13;;;2.08;87.33
41078;BME280;26823;42.662;23.352;2022-11-27T05:09:36;95702.28;;;2.09;86.81
41078;BME280;26823;42.662;23.352;2022-11-27T05:12:02;95691.22;;;2.05;87.22
41078;BME280;26823;42.662;23.352;2022-11-27T05:14:28;95654.00;;;1.77;87.23
41078;BME280;26823;42.662;23.352;2022-11-27T05:16:56;95714.16;;;1.93;87.36
41078;BME280;26823;42.662;23.352;2022-11-27T05:19:24;95714.59;;;1.97;87.00
41078;BME280;26823;42.662;23.352;2022-11-27T05:21:50;95714.59;;;2.03;87.11
41078;BME280;26823;42.662;23.352;2022-11-27T05:24:17;95711.13;;;2.03;86.43
41078;BME280;26823;42.662;23.352;2022-11-27T05:26:43;95699.19;;;1.99;86.49
41078;BME280;26823;42.662;23.352;2022-11-27T05:29:10;95721.34;;;1.92;86.76
41078;BME280;26823;42.662;23.352;2022-11-27T05:31:35;95720.94;;;1.95;87.70
41078;BME280;26823;42.662;23.352;2022-11-27T05:34:01;95706.53;;;1.83;87.26
41078;BME280;26823;42.662;23.352;2022-11-27T05:36:27;95696.44;;;1.65;88.69
41078;BME280;26823;42.662;23.352;2022-11-27T05:38:53;95716.56;;;1.74;87.91
41078;BME280;26823;42.662;23.352;2022-11-27T05:41:18;95710.94;;;1.42;89.87
41078;BME280;26823;42.662;23.352;2022-11-27T05:43:44;95712.50;;;1.23;91.26
41078;BME280;26823;42.662;23.352;2022-11-27T05:46:12;95729.47;;;1.57;90.66
41078;BME280;26823;42.662;23.352;2022-11-27T05:48:38;95724.72;;;1.53;90.08
41078;BME280;26823;42.662;23.352;2022-11-27T05:51:04;95728.13;;;1.33;91.44
41078;BME280;26823;42.662;23.352;2022-11-27T05:53:30;95718.44;;;1.25;91.66
41078;BME280;26823;42.662;23.352;2022-11-27T05:56:10;95725.78;;;1.58;91.41
41078;BME280;26823;42.662;23.352;2022-11-27T05:58:37;95726.25;;;1.82;90.19
41078;BME280;26823;42.662;23.352;2022-11-27T06:01:03;95713.13;;;1.87;89.42
41078;BME280;26823;42.662;23.352;2022-11-27T06:03:28;95734.81;;;1.71;89.13
41078;BME280;26823;42.662;23.352;2022-11-27T06:05:54;95722.91;;;1.60;89.72
41078;BME280;26823;42.662;23.352;2022-11-27T06:08:19;95741.78;;;1.58;89.73
41078;BME280;26823;42.662;23.352;2022-11-27T06:10:45;95741.44;;;1.75;89.81
41078;BME280;26823;42.662;23.352;2022-11-27T06:13:11;95716.63;;;1.88;90.57
41078;BME280;26823;42.662;23.352;2022-11-27T06:15:37;95731.69;;;1.54;89.92
41078;BME280;26823;42.662;23.352;2022-11-27T06:18:03;95723.03;;;0.96;90.59
41078;BME280;26823;42.662;23.352;2022-11-27T06:20:29;95735.66;;;0.88;91.53
41078;BME280;26823;42.662;23.352;2022-11-27T06:22:55;95742.53;;;0.75;92.97
41078;BME280;26823;42.662;23.352;2022-11-27T06:25:21;95753.28;;;0.60;93.34
41078;BME280;26823;42.662;23.352;2022-11-27T06:27:46;95746.13;;;0.61;93.75
41078;BME280;26823;42.662;23.352;2022-11-27T06:30:12;95748.84;;;0.68;93.42
41078;BME280;26823;42.662;23.352;2022-11-27T06:32:37;95727.59;;;0.46;93.44
41078;BME280;26823;42.662;23.352;2022-11-27T06:35:03;95736.53;;;0.67;94.23
41078;BME280;26823;42.662;23.352;2022-11-27T06:37:29;95736.28;;;0.61;94.25
41078;BME280;26823;42.662;23.352;2022-11-27T06:39:54;95734.59;;;0.54;94.46
41078;BME280;26823;42.662;23.352;2022-11-27T06:42:20;95729.47;;;0.52;94.38
41078;BME280;26823;42.662;23.352;2022-11-27T06:44:45;95733.19;;;0.58;94.35
41078;BME280;26823;42.662;23.352;2022-11-27T06:47:11;95744.63;;;0.80;93.79
41078;BME280;26823;42.662;23.352;2022-11-27T06:49:37;95752.72;;;1.35;94.29
41078;BME280;26823;42.662;23.352;2022-11-27T06:52:02;95746.69;;;1.61;91.99
41078;BME280;26823;42.662;23.352;2022-11-27T06:54:28;95749.06;;;1.36;90.85
41078;BME280;26823;42.662;23.352;2022-11-27T06:56:53;95736.34;;;1.38;90.61
41078;BME280;26823;42.662;23.352;2022-11-27T06:59:19;95727.94;;;1.35;89.98
41078;BME280;26823;42.662;23.352;2022-11-27T07:01:44;95748.25;;;1.42;90.43
41078;BME280;26823;42.662;23.352;2022-11-27T07:04:11;95747.81;;;1.32;89.97
41078;BME280;26823;42.662;23.352;2022-11-27T07:06:38;95734.84;;;1.29;90.99
41078;BME280;26823;42.662;23.352;2022-11-27T07:09:04;95739.41;;;1.42;90.43
41078;BME280;26823;42.662;23.352;2022-11-27T07:11:31;95722.16;;;1.31;91.26
41078;BME280;26823;42.662;23.352;2022-11-27T07:13:58;95729.97;;;1.39;91.26
41078;BME280;26823;42.662;23.352;2022-11-27T07:16:26;95745.06;;;1.67;90.71
41078;BME280;26823;42.662;23.352;2022-11-27T07:18:54;95724.56;;;1.61;89.16
41078;BME280;26823;42.662;23.352;2022-11-27T07:21:20;95734.88;;;1.77;88.77
41078;BME280;26823;42.662;23.352;2022-11-27T07:23:46;95729.81;;;2.23;87.83
41078;BME280;26823;42.662;23.352;2022-11-27T07:26:16;95733.00;;;1.71;88.18
41078;BME280;26823;42.662;23.352;2022-11-27T07:28:42;95724.66;;;1.39;89.84
41078;BME280;26823;42.662;23.352;2022-11-27T07:31:08;95689.19;;;0.97;90.70
41078;BME280;26823;42.662;23.352;2022-11-27T07:33:34;95724.97;;;1.16;91.11
41078;BME280;26823;42.662;23.352;2022-11-27T07:36:05;95731.97;;;1.24;91.78
41078;BME280;26823;42.662;23.352;2022-11-27T07:38:32;95732.81;;;1.31;91.86
41078;BME280;26823;42.662;23.352;2022-11-27T07:41:02;95724.25;;;1.42;91.78
41078;BME280;26823;42.662;23.352;2022-11-27T07:43:28;95720.91;;;1.27;91.76
41078;BME280;26823;42.662;23.352;2022-11-27T07:45:54;95738.91;;;1.60;91.02
41078;BME280;26823;42.662;23.352;2022-11-27T07:48:19;95717.38;;;1.61;90.27
41078;BME280;26823;42.662;23.352;2022-11-27T07:50:45;95730.50;;;1.63;90.34
41078;BME280;26823;42.662;23.352;2022-11-27T07:53:10;95728.81;;;1.55;91.32
41078;BME280;26823;42.662;23.352;2022-11-27T07:55:40;95730.81;;;2.15;90.75
41078;BME280;26823;42.662;23.352;2022-11-27T07:58:06;95715.47;;;2.37;88.67
41078;BME280;26823;42.662;23.352;2022-11-27T08:00:32;95722.25;;;2.40;85.74
41078;BME280;26823;42.662;23.352;2022-11-27T08:02:59;95729.63;;;2.31;86.20
41078;BME280;26823;42.662;23.352;2022-11-27T08:05:24;95717.28;;;2.23;86.31
41078;BME280;26823;42.662;23.352;2022-11-27T08:07:50;95727.56;;;2.53;86.42
41078;BME280;26823;42.662;23.352;2022-11-27T08:10:15;95710.53;;;2.27;85.34
41078;BME280;26823;42.662;23.352;2022-11-27T08:12:41;95736.41;;;2.40;85.11
41078;BME280;26823;42.662;23.352;2022-11-27T08:15:07;95729.03;;;2.36;85.40
41078;BME280;26823;42.662;23.352;2022-11-27T08:17:39;95717.28;;;2.37;84.53
41078;BME280;26823;42.662;23.352;2022-11-27T08:20:05;95734.56;;;2.48;84.96
41078;BME280;26823;42.662;23.352;2022-11-27T08:22:31;95737.03;;;2.63;84.35
41078;BME280;26823;42.662;23.352;2022-11-27T08:24:56;95735.59;;;2.87;84.39
41078;BME280;26823;42.662;23.352;2022-11-27T08:27:22;95744.59;;;3.06;82.98
41078;BME280;26823;42.662;23.352;2022-11-27T08:29:47;95735.75;;;3.12;81.76
41078;BME280;26823;42.662;23.352;2022-11-27T08:32:12;95727.97;;;2.84;82.11
41078;BME280;26823;42.662;23.352;2022-11-27T08:34:38;95723.06;;;2.47;83.74
41078;BME280;26823;42.662;23.352;2022-11-27T08:37:05;95713.19;;;2.54;84.44
41078;BME280;26823;42.662;23.352;2022-11-27T08:39:30;95704.75;;;2.71;84.50
41078;BME280;26823;42.662;23.352;2022-11-27T08:41:55;95703.94;;;2.77;83.70
41078;BME280;26823;42.662;23.352;2022-11-27T08:44:21;95721.38;;;3.00;83.17
41078;BME280;26823;42.662;23.352;2022-11-27T08:46:46;95722.22;;;2.80;83.70
41078;BME280;26823;42.662;23.352;2022-11-27T08:49:12;95708.69;;;2.75;83.22
41078;BME280;26823;42.662;23.352;2022-11-27T08:51:37;95713.59;;;2.91;84.04
41078;BME280;26823;42.662;23.352;2022-11-27T08:54:03;95694.22;;;2.96;82.33
41078;BME280;26823;42.662;23.352;2022-11-27T08:56:28;95715.31;;;3.38;83.03
41078;BME280;26823;42.662;23.352;2022-11-27T08:58:54;95705.03;;;3.35;82.04
41078;BME280;26823;42.662;23.352;2022-11-27T09:01:23;95711.31;;;3.02;83.10
41078;BME280;26823;42.662;23.352;2022-11-27T09:03:49;95694.97;;;3.30;83.55
41078;BME280;26823;42.662;23.352;2022-11-27T09:06:20;95696.59;;;3.38;82.25
41078;BME280;26823;42.662;23.352;2022-11-27T09:08:46;95680.66;;;3.56;81.16
41078;BME280;26823;42.662;23.352;2022-11-27T09:11:13;95703.00;;;3.75;80.14
41078;BME280;26823;42.662;23.352;2022-11-27T09:13:39;95703.19;;;3.35;81.50
41078;BME280;26823;42.662;23.352;2022-11-27T09:16:08;95699.03;;;3.46;81.96
41078;BME280;26823;42.662;23.352;2022-11-27T09:18:34;95696.75;;;3.50;81.52
41078;BME280;26823;42.662;23.352;2022-11-27T09:21:01;95703.00;;;3.75;80.39
41078;BME280;26823;42.662;23.352;2022-11-27T09:23:28;95688.16;;;3.34;81.92
41078;BME280;26823;42.662;23.352;2022-11-27T09:25:56;95683.16;;;3.51;81.40
41078;BME280;26823;42.662;23.352;2022-11-27T09:28:22;95676.41;;;3.42;81.98
41078;BME280;26823;42.662;23.352;2022-11-27T09:30:47;95681.66;;;3.62;83.33
41078;BME280;26823;42.662;23.352;2022-11-27T09:33:13;95673.81;;;3.67;81.72
41078;BME280;26823;42.662;23.352;2022-11-27T09:35:38;95683.03;;;3.78;81.09
41078;BME280;26823;42.662;23.352;2022-11-27T09:38:04;95656.75;;;4.00;80.00
41078;BME280;26823;42.662;23.352;2022-11-27T09:40:30;95669.25;;;4.06;79.21
41078;BME280;26823;42.662;23.352;2022-11-27T09:43:00;95677.44;;;4.18;78.45
41078;BME280;26823;42.662;23.352;2022-11-27T09:45:29;95667.13;;;4.15;79.14
41078;BME280;26823;42.662;23.352;2022-11-27T09:48:01;95661.59;;;4.17;78.80
41078;BME280;26823;42.662;23.352;2022-11-27T09:50:32;95659.03;;;4.29;79.17
41078;BME280;26823;42.662;23.352;2022-11-27T09:55:45;95671.50;;;4.85;75.71
41078;BME280;26823;42.662;23.352;2022-11-27T09:58:24;95650.22;;;4.47;76.38
41078;BME280;26823;42.662;23.352;2022-11-27T10:00:55;95656.19;;;4.49;76.75
41078;BME280;26823;42.662;23.352;2022-11-27T10:03:24;95637.44;;;4.23;78.09
41078;BME280;26823;42.662;23.352;2022-11-27T10:06:27;95641.59;;;4.19;77.53
41078;BME280;26823;42.662;23.352;2022-11-27T10:14:47;95640.66;;;4.57;77.66
41078;BME280;26823;42.662;23.352;2022-11-27T10:20:04;95633.47;;;5.14;74.86
41078;BME280;26823;42.662;23.352;2022-11-27T10:25:27;95621.84;;;5.01;73.84
41078;BME280;26823;42.662;23.352;2022-11-27T10:30:38;95604.13;;;5.00;73.55
41078;BME280;26823;42.662;23.352;2022-11-27T10:33:16;95615.38;;;4.90;74.00
41078;BME280;26823;42.662;23.352;2022-11-27T10:35:42;95608.03;;;4.61;75.49
41078;BME280;26823;42.662;23.352;2022-11-27T10:38:18;95594.75;;;4.72;75.92
41078;BME280;26823;42.662;23.352;2022-11-27T10:40:51;95572.09;;;5.05;74.31
41078;BME280;26823;42.662;23.352;2022-11-27T10:43:23;95607.75;;;4.87;74.63
41078;BME280;26823;42.662;23.352;2022-11-27T10:48:20;95603.69;;;5.52;73.25
41078;BME280;26823;42.662;23.352;2022-11-27T10:50:46;95598.50;;;5.69;71.64
41078;BME280;26823;42.662;23.352;2022-11-27T10:53:34;95596.44;;;5.83;71.85
41078;BME280;26823;42.662;23.352;2022-11-27T11:01:18;95585.59;;;5.48;71.37
41078;BME280;26823;42.662;23.352;2022-11-27T11:03:44;95575.09;;;5.28;71.78
41078;BME280;26823;42.662;23.352;2022-11-27T11:06:20;95585.69;;;5.41;72.01
41078;BME280;26823;42.662;23.352;2022-11-27T11:08:47;95583.66;;;5.67;71.09
41078;BME280;26823;42.662;23.352;2022-11-27T11:11:23;95575.72;;;5.60;70.45
41078;BME280;26823;42.662;23.352;2022-11-27T11:13:49;95565.88;;;5.54;71.26
41078;BME280;26823;42.662;23.352;2022-11-27T11:16:25;95570.06;;;5.92;69.67
41078;BME280;26823;42.662;23.352;2022-11-27T11:18:55;95574.81;;;6.09;69.57
41078;BME280;26823;42.662;23.352;2022-11-27T11:23:59;95560.50;;;5.84;68.49
41078;BME280;26823;42.662;23.352;2022-11-27T11:26:49;95559.84;;;5.59;69.69
41078;BME280;26823;42.662;23.352;2022-11-27T11:29:35;95558.06;;;5.52;69.69
41078;BME280;26823;42.662;23.352;2022-11-27T11:32:14;95561.16;;;5.37;69.38
41078;BME280;26823;42.662;23.352;2022-11-27T11:34:49;95556.44;;;5.21;69.16
41078;BME280;26823;42.662;23.352;2022-11-27T11:37:26;95541.34;;;5.08;70.46
41078;BME280;26823;42.662;23.352;2022-11-27T11:42:31;95519.53;;;4.86;72.10
41078;BME280;26823;42.662;23.352;2022-11-27T11:47:27;95533.44;;;5.13;70.93
41078;BME280;26823;42.662;23.352;2022-11-27T11:49:54;95533.44;;;4.95;70.82
41078;BME280;26823;42.662;23.352;2022-11-27T11:53:15;95537.31;;;4.99;70.74
41078;BME280;26823;42.662;23.352;2022-11-27T11:55:23;95522.06;;;5.30;70.28
41078;BME280;26823;42.662;23.352;2022-11-27T11:58:01;95522.38;;;5.21;69.92
41078;BME280;26823;42.662;23.352;2022-11-27T12:00:42;95521.03;;;5.31;70.17
41078;BME280;26823;42.662;23.352;2022-11-27T12:03:34;95530.25;;;5.35;70.57
41078;BME280;26823;42.662;23.352;2022-11-27T12:06:11;95528.78;;;5.20;69.86
41078;BME280;26823;42.662;23.352;2022-11-27T12:11:14;95512.63;;;4.78;70.75
41078;BME280;26823;42.662;23.352;2022-11-27T12:25:32;95512.63;;;4.78;70.67
41078;BME280;26823;42.662;23.352;2022-11-27T12:31:28;95492.44;;;4.76;70.77
41078;BME280;26823;42.662;23.352;2022-11-27T12:45:35;95498.81;;;4.93;71.20
41078;BME280;26823;42.662;23.352;2022-11-27T12:48:23;95500.13;;;5.02;70.70
41078;BME280;26823;42.662;23.352;2022-11-27T12:50:54;95485.94;;;5.02;70.40
41078;BME280;26823;42.662;23.352;2022-11-27T12:59:13;95496.75;;;4.77;72.49
41078;BME280;26823;42.662;23.352;2022-11-27T13:01:46;95487.06;;;4.94;72.42
41078;BME280;26823;42.662;23.352;2022-11-27T13:04:22;95496.94;;;4.94;71.50
41078;BME280;26823;42.662;23.352;2022-11-27T13:07:03;95488.47;;;4.97;72.76
41078;BME280;26823;42.662;23.352;2022-11-27T13:09:51;95490.53;;;5.13;72.02
41078;BME280;26823;42.662;23.352;2022-11-27T13:12:33;95454.28;;;4.92;72.10
41078;BME280;26823;42.662;23.352;2022-11-27T13:15:05;95488.53;;;5.20;71.36
41078;BME280;26823;42.662;23.352;2022-11-27T13:17:41;95477.19;;;5.06;70.71
41078;BME280;26823;42.662;23.352;2022-11-27T13:20:15;95487.50;;;4.91;71.67
41078;BME280;26823;42.662;23.352;2022-11-27T13:22:42;95444.06;;;4.70;72.03
41078;BME280;26823;42.662;23.352;2022-11-27T13:25:12;95483.91;;;4.97;70.78
41078;BME280;26823;42.662;23.352;2022-11-27T13:27:45;95482.28;;;4.96;71.29
41078;BME280;26823;42.662;23.352;2022-11-27T13:30:23;95478.94;;;4.82;71.45
41078;BME280;26823;42.662;23.352;2022-11-27T13:32:59;95470.53;;;4.79;72.09
41078;BME280;26823;42.662;23.352;2022-11-27T13:38:20;95478.56;;;4.79;72.15
41078;BME280;26823;42.662;23.352;2022-11-27T13:40:49;95466.91;;;4.73;72.35
41078;BME280;26823;42.662;23.352;2022-11-27T13:43:28;95470.22;;;4.56;72.14
41078;BME280;26823;42.662;23.352;2022-11-27T13:46:06;95469.16;;;4.57;72.92
41078;BME280;26823;42.662;23.352;2022-11-27T13:48:34;95481.22;;;4.67;73.49
41078;BME280;26823;42.662;23.352;2022-11-27T13:51:02;95458.75;;;4.49;72.49
41078;BME280;26823;42.662;23.352;2022-11-27T13:53:40;95477.63;;;4.54;72.93
41078;BME280;26823;42.662;23.352;2022-11-27T13:56:07;95479.66;;;4.59;72.71
41078;BME280;26823;42.662;23.352;2022-11-27T13:58:42;95475.09;;;4.60;72.71
41078;BME280;26823;42.662;23.352;2022-11-27T14:01:25;95484.03;;;4.53;72.77
41078;BME280;26823;42.662;23.352;2022-11-27T14:03:51;95479.88;;;4.57;73.09
41078;BME280;26823;42.662;23.352;2022-11-27T14:06:18;95481.44;;;4.47;72.21
41078;BME280;26823;42.662;23.352;2022-11-27T14:08:50;95477.06;;;4.52;72.92
41078;BME280;26823;42.662;23.352;2022-11-27T14:11:46;95468.84;;;4.66;72.28
41078;BME280;26823;42.662;23.352;2022-11-27T14:14:21;95477.78;;;4.60;72.08
41078;BME280;26823;42.662;23.352;2022-11-27T14:17:01;95468.03;;;4.47;71.79
41078;BME280;26823;42.662;23.352;2022-11-27T14:19:33;95485.00;;;4.59;71.97
41078;BME280;26823;42.662;23.352;2022-11-27T14:22:30;95478.53;;;4.48;71.98
41078;BME280;26823;42.662;23.352;2022-11-27T14:24:57;95480.53;;;4.53;71.28
41078;BME280;26823;42.662;23.352;2022-11-27T14:27:24;95466.78;;;4.49;71.42
41078;BME280;26823;42.662;23.352;2022-11-27T14:29:51;95477.72;;;4.66;71.47
41078;BME280;26823;42.662;23.352;2022-11-27T14:32:18;95471.28;;;4.67;71.51
41078;BME280;26823;42.662;23.352;2022-11-27T14:34:44;95465.03;;;4.73;70.04
41078;BME280;26823;42.662;23.352;2022-11-27T14:37:23;95481.88;;;4.81;69.42
41078;BME280;26823;42.662;23.352;2022-11-27T14:39:49;95449.50;;;4.64;69.98
41078;BME280;26823;42.662;23.352;2022-11-27T14:42:23;95486.94;;;4.89;68.32
41078;BME280;26823;42.662;23.352;2022-11-27T14:45:18;95485.06;;;4.89;68.31
41078;BME280;26823;42.662;23.352;2022-11-27T14:47:52;95473.69;;;4.76;67.30
41078;BME280;26823;42.662;23.352;2022-11-27T14:50:20;95492.34;;;4.82;66.07